Aérodrome :
LOGIN :

S'inscrire | Disclaimer

   EN    FR    IT 

 










Légende :    VFR   VFR Marginal   IFR   IFR Intensif   IFR Très Intensif
Visi : 
Plafond : 
>= 8 km
>= 3000ft
5 à 8 km
1000 à 3000 ft
1500m à 5 km
500 à 1000 ft
800 à 1500m
200 à 500 ft
< 800m
< 200 ft
Symboles :   Orages  Brouillard  Fortes neiges  Fortes précipitations  Vent > 20 kt
SIGMETs :   Divers  Orages  Givrage  Turbulence  Onde Orograph.  Cendres Volcan.







- Altitude de l'aérodrome : 6 ft
- Code IATA : PSA


LIRP - Galileo Galilei Pisa

DERNIER METAR :
  • 220345Z 00000KT 5000 -RA FEW003 SCT020 BKN060 15/15 Q1011 TEMPO 3500 BR

METARs EXPIRÉS :
  • 220315Z VRB01KT 9999 -RA FEW005 SCT040 BKN060 15/15 Q1011 NOSIG
  • 220245Z VRB01KT 9999 -RA FEW005 SCT040 BKN060 15/15 Q1011 NOSIG
  • 220215Z VRB01KT 9999 -RA FEW005 SCT040 BKN060 15/15 Q1011 NOSIG
  • 220145Z 19003KT 9999 -RA SCT040 BKN060 16/16 Q1011 NOSIG
  • 220115Z 18001KT 9999 -RA SCT040 BKN070 16/16 Q1011 NOSIG

TAF TAF LIRP
Valide du 22 à 00h jusqu'au 23 à 00h UTC


212300Z 2200/2224 08005KT 9999 SCT015 BKN060
TEMPO 2200/2212 5000 RA
TEMPO 2200/2206 12010G20KT 2000 TSRA SCT015CB BKN025
Pas de NOTAMs connus pour ce terrain.
1 SIGMET publié pour la FIR Milano (LIMM) :
 
Orages noyés dans la masse
LIMM SIGMET 1 VALID 220337/220537 LIIP
LIMM MILANO FIR EMBD TS FCST WI N4434 E00650 - N4335 E00758 - N4419 E01331 - N4513 E01259 - N4613 E01328 - N4532 E00705 - N4434 E00650 TOP FL330 MOV N NC=



MET'MAP, la Météo Aéronautique d'un coup d'oeil ! - Copyright ORBIFLY Décembre 2007 - Disclaimer

ORBIFLY MET'MAP TEAM :

Programmation & Développement : Alexandra Zaïnal
Conception & Développement : Baudouin d'Aumeries
Co-Programmation & Développement : Marc-Olivier Méhu
Soutien technique & logistique : Manuel Goepfert

Contact : metmap@orbifly.com




SOURCES & CREDITS :

   NOAA